sensor_id;sensor_type;location;lat;lon;timestamp;pressure;altitude;pressure_sealevel;temperature;humidity
24440;BME280;12618;54.386;18.394;2023-02-15T00:02:14;101448.54;;;3.34;100.00
24440;BME280;12618;54.386;18.394;2023-02-15T00:04:45;101439.14;;;3.33;100.00
24440;BME280;12618;54.386;18.394;2023-02-15T00:07:18;101435.65;;;3.32;100.00
24440;BME280;12618;54.386;18.394;2023-02-15T00:09:50;101432.35;;;3.32;100.00
24440;BME280;12618;54.386;18.394;2023-02-15T00:12:22;101436.88;;;3.31;100.00
24440;BME280;12618;54.386;18.394;2023-02-15T00:14:53;101432.70;;;3.30;100.00
24440;BME280;12618;54.386;18.394;2023-02-15T00:17:28;101432.16;;;3.29;100.00
24440;BME280;12618;54.386;18.394;2023-02-15T00:20:00;101433.54;;;3.28;100.00
24440;BME280;12618;54.386;18.394;2023-02-15T00:22:32;101433.84;;;3.24;100.00
24440;BME280;12618;54.386;18.394;2023-02-15T00:25:03;101431.77;;;3.25;100.00
24440;BME280;12618;54.386;18.394;2023-02-15T00:27:37;101427.05;;;3.24;100.00
24440;BME280;12618;54.386;18.394;2023-02-15T00:30:09;101424.61;;;3.23;100.00
24440;BME280;12618;54.386;18.394;2023-02-15T00:32:41;101422.21;;;3.26;100.00
24440;BME280;12618;54.386;18.394;2023-02-15T00:35:13;101414.56;;;3.27;100.00
24440;BME280;12618;54.386;18.394;2023-02-15T00:37:44;101417.52;;;3.27;100.00
24440;BME280;12618;54.386;18.394;2023-02-15T00:40:16;101412.13;;;3.27;100.00
24440;BME280;12618;54.386;18.394;2023-02-15T00:42:48;101409.49;;;3.24;100.00
24440;BME280;12618;54.386;18.394;2023-02-15T00:45:19;101408.07;;;3.21;100.00
24440;BME280;12618;54.386;18.394;2023-02-15T00:47:52;101409.13;;;3.19;100.00
24440;BME280;12618;54.386;18.394;2023-02-15T00:50:24;101410.48;;;3.18;100.00
24440;BME280;12618;54.386;18.394;2023-02-15T00:52:56;101407.33;;;3.15;100.00
24440;BME280;12618;54.386;18.394;2023-02-15T00:55:27;101403.50;;;3.15;100.00
24440;BME280;12618;54.386;18.394;2023-02-15T00:57:59;101402.63;;;3.15;100.00
24440;BME280;12618;54.386;18.394;2023-02-15T01:00:31;101402.80;;;3.16;100.00
24440;BME280;12618;54.386;18.394;2023-02-15T01:03:02;101400.74;;;3.17;100.00
24440;BME280;12618;54.386;18.394;2023-02-15T01:05:34;101393.97;;;3.17;100.00
24440;BME280;12618;54.386;18.394;2023-02-15T01:08:06;101391.38;;;3.23;100.00
24440;BME280;12618;54.386;18.394;2023-02-15T01:10:38;101395.08;;;3.27;100.00
24440;BME280;12618;54.386;18.394;2023-02-15T01:13:10;101391.13;;;3.29;100.00
24440;BME280;12618;54.386;18.394;2023-02-15T01:15:43;101390.95;;;3.30;100.00
24440;BME280;12618;54.386;18.394;2023-02-15T01:18:14;101389.36;;;3.28;100.00
24440;BME280;12618;54.386;18.394;2023-02-15T01:20:46;101385.20;;;3.28;100.00
24440;BME280;12618;54.386;18.394;2023-02-15T01:23:18;101383.48;;;3.34;100.00
24440;BME280;12618;54.386;18.394;2023-02-15T01:25:52;101380.20;;;3.36;100.00
24440;BME280;12618;54.386;18.394;2023-02-15T01:28:23;101377.73;;;3.34;100.00
24440;BME280;12618;54.386;18.394;2023-02-15T01:30:55;101372.33;;;3.29;100.00
24440;BME280;12618;54.386;18.394;2023-02-15T01:33:27;101371.45;;;3.29;100.00
24440;BME280;12618;54.386;18.394;2023-02-15T01:35:58;101365.86;;;3.27;100.00
24440;BME280;12618;54.386;18.394;2023-02-15T01:38:31;101368.77;;;3.22;100.00
24440;BME280;12618;54.386;18.394;2023-02-15T01:41:03;101370.32;;;3.19;100.00
24440;BME280;12618;54.386;18.394;2023-02-15T01:43:56;101369.96;;;3.17;100.00
24440;BME280;12618;54.386;18.394;2023-02-15T01:46:38;101368.89;;;3.15;100.00
24440;BME280;12618;54.386;18.394;2023-02-15T01:49:14;101368.52;;;3.13;100.00
24440;BME280;12618;54.386;18.394;2023-02-15T01:51:48;101364.73;;;3.17;100.00
24440;BME280;12618;54.386;18.394;2023-02-15T01:54:23;101362.49;;;3.19;100.00
24440;BME280;12618;54.386;18.394;2023-02-15T01:57:01;101357.11;;;3.22;100.00
24440;BME280;12618;54.386;18.394;2023-02-15T01:59:35;101362.91;;;3.27;100.00
24440;BME280;12618;54.386;18.394;2023-02-15T02:02:13;101359.27;;;3.28;100.00
24440;BME280;12618;54.386;18.394;2023-02-15T02:04:55;101359.58;;;3.25;100.00
24440;BME280;12618;54.386;18.394;2023-02-15T02:07:35;101354.32;;;3.19;100.00
24440;BME280;12618;54.386;18.394;2023-02-15T02:10:13;101352.89;;;3.16;100.00
24440;BME280;12618;54.386;18.394;2023-02-15T02:12:46;101350.77;;;3.13;100.00
24440;BME280;12618;54.386;18.394;2023-02-15T02:15:19;101351.45;;;3.08;100.00
24440;BME280;12618;54.386;18.394;2023-02-15T02:18:19;101350.36;;;3.05;100.00
24440;BME280;12618;54.386;18.394;2023-02-15T02:33:01;101329.95;;;2.99;100.00
24440;BME280;12618;54.386;18.394;2023-02-15T02:38:32;101328.56;;;2.99;100.00
24440;BME280;12618;54.386;18.394;2023-02-15T02:46:54;101320.66;;;2.89;100.00
24440;BME280;12618;54.386;18.394;2023-02-15T02:54:56;101325.15;;;2.84;100.00
24440;BME280;12618;54.386;18.394;2023-02-15T02:57:28;101322.85;;;2.81;100.00
24440;BME280;12618;54.386;18.394;2023-02-15T03:00:04;101320.92;;;2.80;100.00
24440;BME280;12618;54.386;18.394;2023-02-15T03:02:40;101323.34;;;2.79;100.00
24440;BME280;12618;54.386;18.394;2023-02-15T03:09:24;101319.16;;;2.76;100.00
24440;BME280;12618;54.386;18.394;2023-02-15T03:12:06;101320.36;;;2.75;100.00
24440;BME280;12618;54.386;18.394;2023-02-15T03:14:40;101322.46;;;2.75;100.00
24440;BME280;12618;54.386;18.394;2023-02-15T03:17:13;101315.85;;;2.75;100.00
24440;BME280;12618;54.386;18.394;2023-02-15T03:19:47;101310.47;;;2.76;100.00
24440;BME280;12618;54.386;18.394;2023-02-15T03:22:59;101307.67;;;2.75;100.00
24440;BME280;12618;54.386;18.394;2023-02-15T03:25:33;101311.48;;;2.73;100.00
24440;BME280;12618;54.386;18.394;2023-02-15T03:28:13;101309.20;;;2.72;100.00
24440;BME280;12618;54.386;18.394;2023-02-15T03:30:48;101302.41;;;2.71;100.00
24440;BME280;12618;54.386;18.394;2023-02-15T03:33:23;101302.22;;;2.69;100.00
24440;BME280;12618;54.386;18.394;2023-02-15T03:36:04;101300.98;;;2.68;100.00
24440;BME280;12618;54.386;18.394;2023-02-15T03:38:47;101300.98;;;2.67;100.00
24440;BME280;12618;54.386;18.394;2023-02-15T03:41:24;101299.06;;;2.66;100.00
24440;BME280;12618;54.386;18.394;2023-02-15T03:44:04;101297.15;;;2.65;100.00
24440;BME280;12618;54.386;18.394;2023-02-15T03:49:59;101295.23;;;2.64;100.00
24440;BME280;12618;54.386;18.394;2023-02-15T03:52:32;101291.06;;;2.64;100.00
24440;BME280;12618;54.386;18.394;2023-02-15T03:55:06;101290.54;;;2.66;100.00
24440;BME280;12618;54.386;18.394;2023-02-15T03:57:37;101291.43;;;2.68;100.00
24440;BME280;12618;54.386;18.394;2023-02-15T04:00:28;101288.83;;;2.68;100.00
24440;BME280;12618;54.386;18.394;2023-02-15T04:09:24;101280.21;;;2.75;100.00
24440;BME280;12618;54.386;18.394;2023-02-15T04:12:14;101283.89;;;2.79;100.00
24440;BME280;12618;54.386;18.394;2023-02-15T04:14:46;101286.01;;;2.82;100.00
24440;BME280;12618;54.386;18.394;2023-02-15T04:17:37;101286.18;;;2.82;100.00
24440;BME280;12618;54.386;18.394;2023-02-15T04:20:09;101285.49;;;2.82;100.00
24440;BME280;12618;54.386;18.394;2023-02-15T04:23:00;101279.42;;;2.84;100.00
24440;BME280;12618;54.386;18.394;2023-02-15T04:25:50;101273.87;;;2.84;100.00
24440;BME280;12618;54.386;18.394;2023-02-15T04:28:22;101271.95;;;2.84;100.00
24440;BME280;12618;54.386;18.394;2023-02-15T04:30:53;101273.50;;;2.82;100.00
24440;BME280;12618;54.386;18.394;2023-02-15T04:33:26;101267.90;;;2.79;100.00
24440;BME280;12618;54.386;18.394;2023-02-15T04:35:57;101275.71;;;2.79;100.00
24440;BME280;12618;54.386;18.394;2023-02-15T04:38:29;101277.61;;;2.78;100.00
24440;BME280;12618;54.386;18.394;2023-02-15T04:41:01;101272.91;;;2.76;100.00
24440;BME280;12618;54.386;18.394;2023-02-15T04:43:33;101273.09;;;2.77;100.00
24440;BME280;12618;54.386;18.394;2023-02-15T04:46:05;101267.36;;;2.76;100.00
24440;BME280;12618;54.386;18.394;2023-02-15T04:48:36;101267.35;;;2.77;100.00
24440;BME280;12618;54.386;18.394;2023-02-15T04:51:09;101260.73;;;2.77;100.00
24440;BME280;12618;54.386;18.394;2023-02-15T04:53:41;101257.27;;;2.77;100.00
24440;BME280;12618;54.386;18.394;2023-02-15T04:56:13;101255.70;;;2.77;100.00
24440;BME280;12618;54.386;18.394;2023-02-15T04:58:45;101257.97;;;2.78;100.00
24440;BME280;12618;54.386;18.394;2023-02-15T05:01:17;101260.23;;;2.77;100.00
24440;BME280;12618;54.386;18.394;2023-02-15T05:03:49;101256.57;;;2.76;100.00
24440;BME280;12618;54.386;18.394;2023-02-15T05:06:21;101255.70;;;2.76;100.00
24440;BME280;12618;54.386;18.394;2023-02-15T05:08:53;101254.33;;;2.79;100.00
24440;BME280;12618;54.386;18.394;2023-02-15T05:11:25;101251.73;;;2.80;100.00
24440;BME280;12618;54.386;18.394;2023-02-15T05:13:57;101246.52;;;2.80;100.00
24440;BME280;12618;54.386;18.394;2023-02-15T05:16:29;101246.17;;;2.80;100.00
24440;BME280;12618;54.386;18.394;2023-02-15T05:19:01;101246.02;;;2.81;100.00
24440;BME280;12618;54.386;18.394;2023-02-15T05:21:33;101248.27;;;2.82;100.00
24440;BME280;12618;54.386;18.394;2023-02-15T05:24:05;101246.88;;;2.80;100.00
24440;BME280;12618;54.386;18.394;2023-02-15T05:26:57;101247.21;;;2.79;100.00
24440;BME280;12618;54.386;18.394;2023-02-15T05:29:47;101244.94;;;2.79;100.00
24440;BME280;12618;54.386;18.394;2023-02-15T05:32:19;101240.25;;;2.77;100.00
24440;BME280;12618;54.386;18.394;2023-02-15T05:34:51;101243.52;;;2.73;100.00
24440;BME280;12618;54.386;18.394;2023-02-15T05:37:23;101240.55;;;2.71;100.00
24440;BME280;12618;54.386;18.394;2023-02-15T05:39:54;101239.15;;;2.70;100.00
24440;BME280;12618;54.386;18.394;2023-02-15T05:42:26;101235.67;;;2.70;100.00
24440;BME280;12618;54.386;18.394;2023-02-15T05:44:57;101236.55;;;2.71;100.00
24440;BME280;12618;54.386;18.394;2023-02-15T05:47:29;101240.70;;;2.70;100.00
24440;BME280;12618;54.386;18.394;2023-02-15T05:50:01;101236.71;;;2.70;100.00
24440;BME280;12618;54.386;18.394;2023-02-15T05:52:35;101237.95;;;2.71;100.00
24440;BME280;12618;54.386;18.394;2023-02-15T05:55:07;101233.94;;;2.71;100.00
24440;BME280;12618;54.386;18.394;2023-02-15T05:57:42;101234.66;;;2.72;100.00
24440;BME280;12618;54.386;18.394;2023-02-15T06:00:15;101232.39;;;2.71;100.00
24440;BME280;12618;54.386;18.394;2023-02-15T06:02:47;101228.90;;;2.70;100.00
24440;BME280;12618;54.386;18.394;2023-02-15T06:05:19;101228.89;;;2.69;100.00
24440;BME280;12618;54.386;18.394;2023-02-15T06:07:50;101225.91;;;2.67;100.00
24440;BME280;12618;54.386;18.394;2023-02-15T06:10:22;101225.05;;;2.67;100.00
24440;BME280;12618;54.386;18.394;2023-02-15T06:12:54;101221.40;;;2.68;100.00
24440;BME280;12618;54.386;18.394;2023-02-15T06:15:27;101222.42;;;2.67;100.00
24440;BME280;12618;54.386;18.394;2023-02-15T06:17:58;101220.69;;;2.65;100.00
24440;BME280;12618;54.386;18.394;2023-02-15T06:20:33;101223.64;;;2.64;100.00
24440;BME280;12618;54.386;18.394;2023-02-15T06:23:05;101221.73;;;2.65;100.00
24440;BME280;12618;54.386;18.394;2023-02-15T06:25:40;101221.90;;;2.66;100.00
24440;BME280;12618;54.386;18.394;2023-02-15T06:28:12;101221.55;;;2.65;100.00
24440;BME280;12618;54.386;18.394;2023-02-15T06:30:44;101219.81;;;2.66;100.00
24440;BME280;12618;54.386;18.394;2023-02-15T06:33:16;101225.21;;;2.67;100.00
24440;BME280;12618;54.386;18.394;2023-02-15T06:35:52;101219.83;;;2.68;100.00
24440;BME280;12618;54.386;18.394;2023-02-15T06:38:26;101221.05;;;2.69;100.00
24440;BME280;12618;54.386;18.394;2023-02-15T06:40:58;101222.11;;;2.70;100.00
24440;BME280;12618;54.386;18.394;2023-02-15T06:43:30;101219.84;;;2.69;100.00
24440;BME280;12618;54.386;18.394;2023-02-15T06:46:02;101221.76;;;2.69;100.00
24440;BME280;12618;54.386;18.394;2023-02-15T06:48:34;101224.23;;;2.72;100.00
24440;BME280;12618;54.386;18.394;2023-02-15T06:51:08;101221.11;;;2.76;100.00
24440;BME280;12618;54.386;18.394;2023-02-15T06:53:40;101221.47;;;2.77;100.00
24440;BME280;12618;54.386;18.394;2023-02-15T06:56:14;101214.86;;;2.76;100.00
24440;BME280;12618;54.386;18.394;2023-02-15T06:58:46;101211.20;;;2.74;100.00
24440;BME280;12618;54.386;18.394;2023-02-15T07:01:18;101213.13;;;2.74;100.00
24440;BME280;12618;54.386;18.394;2023-02-15T07:03:50;101206.16;;;2.75;100.00
24440;BME280;12618;54.386;18.394;2023-02-15T07:06:22;101204.09;;;2.77;100.00
24440;BME280;12618;54.386;18.394;2023-02-15T07:08:53;101202.36;;;2.79;100.00
24440;BME280;12618;54.386;18.394;2023-02-15T07:11:25;101203.95;;;2.80;100.00
24440;BME280;12618;54.386;18.394;2023-02-15T07:14:16;101203.44;;;2.82;100.00
24440;BME280;12618;54.386;18.394;2023-02-15T07:16:48;101207.44;;;2.82;100.00
24440;BME280;12618;54.386;18.394;2023-02-15T07:19:20;101203.95;;;2.81;100.00
24440;BME280;12618;54.386;18.394;2023-02-15T07:21:52;101199.08;;;2.80;100.00
24440;BME280;12618;54.386;18.394;2023-02-15T07:24:23;101196.30;;;2.81;100.00
24440;BME280;12618;54.386;18.394;2023-02-15T07:26:55;101192.31;;;2.81;100.00
24440;BME280;12618;54.386;18.394;2023-02-15T07:29:29;101191.12;;;2.84;100.00
24440;BME280;12618;54.386;18.394;2023-02-15T07:32:00;101189.05;;;2.85;100.00
24440;BME280;12618;54.386;18.394;2023-02-15T07:34:32;101184.86;;;2.85;100.00
24440;BME280;12618;54.386;18.394;2023-02-15T07:37:04;101182.98;;;2.91;100.00
24440;BME280;12618;54.386;18.394;2023-02-15T07:39:35;101182.83;;;2.93;100.00
24440;BME280;12618;54.386;18.394;2023-02-15T07:42:07;101186.00;;;2.97;100.00
24440;BME280;12618;54.386;18.394;2023-02-15T07:44:39;101191.20;;;3.00;100.00
24440;BME280;12618;54.386;18.394;2023-02-15T07:47:11;101184.61;;;2.98;100.00
24440;BME280;12618;54.386;18.394;2023-02-15T07:49:43;101180.09;;;3.01;100.00
24440;BME280;12618;54.386;18.394;2023-02-15T07:52:15;101177.33;;;3.03;100.00
24440;BME280;12618;54.386;18.394;2023-02-15T07:54:47;101173.16;;;3.03;100.00
24440;BME280;12618;54.386;18.394;2023-02-15T07:57:19;101173.00;;;3.05;100.00
24440;BME280;12618;54.386;18.394;2023-02-15T07:59:51;101169.88;;;3.06;100.00
24440;BME280;12618;54.386;18.394;2023-02-15T08:02:23;101166.77;;;3.08;100.00
24440;BME280;12618;54.386;18.394;2023-02-15T08:04:54;101166.94;;;3.10;100.00
24440;BME280;12618;54.386;18.394;2023-02-15T08:07:26;101162.06;;;3.11;100.00
24440;BME280;12618;54.386;18.394;2023-02-15T08:09:58;101156.34;;;3.12;100.00
24440;BME280;12618;54.386;18.394;2023-02-15T08:12:31;101153.23;;;3.15;100.00
24440;BME280;12618;54.386;18.394;2023-02-15T08:15:03;101147.69;;;3.18;100.00
24440;BME280;12618;54.386;18.394;2023-02-15T08:17:36;101148.56;;;3.23;100.00
24440;BME280;12618;54.386;18.394;2023-02-15T08:20:09;101144.25;;;3.28;100.00
24440;BME280;12618;54.386;18.394;2023-02-15T08:22:41;101139.92;;;3.32;100.00
24440;BME280;12618;54.386;18.394;2023-02-15T08:25:13;101139.77;;;3.37;100.00
24440;BME280;12618;54.386;18.394;2023-02-15T08:27:44;101136.48;;;3.42;100.00
24440;BME280;12618;54.386;18.394;2023-02-15T08:30:16;101139.79;;;3.44;100.00
24440;BME280;12618;54.386;18.394;2023-02-15T08:32:48;101136.83;;;3.44;100.00
24440;BME280;12618;54.386;18.394;2023-02-15T08:35:20;101138.04;;;3.43;100.00
24440;BME280;12618;54.386;18.394;2023-02-15T08:37:52;101134.39;;;3.43;100.00
24440;BME280;12618;54.386;18.394;2023-02-15T08:40:24;101134.05;;;3.41;100.00
24440;BME280;12618;54.386;18.394;2023-02-15T08:42:55;101134.38;;;3.36;100.00
24440;BME280;12618;54.386;18.394;2023-02-15T08:45:27;101133.84;;;3.34;100.00
24440;BME280;12618;54.386;18.394;2023-02-15T08:47:59;101129.83;;;3.33;100.00
24440;BME280;12618;54.386;18.394;2023-02-15T08:50:31;101132.95;;;3.33;100.00
24440;BME280;12618;54.386;18.394;2023-02-15T08:53:03;101132.25;;;3.33;100.00
24440;BME280;12618;54.386;18.394;2023-02-15T08:55:35;101128.95;;;3.32;100.00
24440;BME280;12618;54.386;18.394;2023-02-15T08:58:06;101128.96;;;3.34;100.00
24440;BME280;12618;54.386;18.394;2023-02-15T09:00:38;101126.69;;;3.31;100.00
24440;BME280;12618;54.386;18.394;2023-02-15T09:03:10;101124.97;;;3.30;100.00
24440;BME280;12618;54.386;18.394;2023-02-15T09:05:43;101122.01;;;3.30;100.00
24440;BME280;12618;54.386;18.394;2023-02-15T09:08:15;101116.77;;;3.29;100.00
24440;BME280;12618;54.386;18.394;2023-02-15T09:10:47;101113.10;;;3.25;100.00
24440;BME280;12618;54.386;18.394;2023-02-15T09:13:20;101110.13;;;3.21;100.00
24440;BME280;12618;54.386;18.394;2023-02-15T09:15:59;101109.96;;;3.19;100.00
24440;BME280;12618;54.386;18.394;2023-02-15T09:18:33;101109.42;;;3.21;100.00
24440;BME280;12618;54.386;18.394;2023-02-15T09:21:18;101105.77;;;3.23;100.00
24440;BME280;12618;54.386;18.394;2023-02-15T09:23:51;101109.45;;;3.26;100.00
24440;BME280;12618;54.386;18.394;2023-02-15T09:26:25;101107.02;;;3.27;100.00
24440;BME280;12618;54.386;18.394;2023-02-15T09:28:59;101105.98;;;3.29;100.00
24440;BME280;12618;54.386;18.394;2023-02-15T09:31:37;101101.64;;;3.29;100.00
24440;BME280;12618;54.386;18.394;2023-02-15T09:34:11;101099.73;;;3.32;100.00
24440;BME280;12618;54.386;18.394;2023-02-15T09:36:43;101096.43;;;3.35;100.00
24440;BME280;12618;54.386;18.394;2023-02-15T09:39:20;101093.64;;;3.33;100.00
24440;BME280;12618;54.386;18.394;2023-02-15T09:53:17;101085.33;;;3.45;100.00
24440;BME280;12618;54.386;18.394;2023-02-15T10:04:09;101079.98;;;3.59;100.00
24440;BME280;12618;54.386;18.394;2023-02-15T10:12:55;101070.75;;;3.57;100.00
24440;BME280;12618;54.386;18.394;2023-02-15T10:16:17;101069.71;;;3.60;100.00
24440;BME280;12618;54.386;18.394;2023-02-15T10:19:04;101073.20;;;3.67;100.00
24440;BME280;12618;54.386;18.394;2023-02-15T10:27:32;101066.77;;;3.79;100.00
24440;BME280;12618;54.386;18.394;2023-02-15T10:30:12;101065.91;;;3.80;100.00
24440;BME280;12618;54.386;18.394;2023-02-15T10:33:00;101064.52;;;3.80;100.00
24440;BME280;12618;54.386;18.394;2023-02-15T10:38:40;101060.70;;;3.90;100.00
24440;BME280;12618;54.386;18.394;2023-02-15T10:56:28;101033.54;;;4.24;100.00
24440;BME280;12618;54.386;18.394;2023-02-15T11:02:16;101033.36;;;4.26;100.00
24440;BME280;12618;54.386;18.394;2023-02-15T11:07:32;101031.61;;;4.24;100.00
24440;BME280;12618;54.386;18.394;2023-02-15T11:10:32;101028.83;;;4.26;100.00
24440;BME280;12618;54.386;18.394;2023-02-15T11:13:16;101022.55;;;4.40;100.00
24440;BME280;12618;54.386;18.394;2023-02-15T11:15:55;101020.77;;;4.44;100.00
24440;BME280;12618;54.386;18.394;2023-02-15T11:18:35;101019.38;;;4.45;100.00
24440;BME280;12618;54.386;18.394;2023-02-15T11:23:59;101008.36;;;4.63;100.00
24440;BME280;12618;54.386;18.394;2023-02-15T11:26:41;101009.21;;;4.67;100.00
24440;BME280;12618;54.386;18.394;2023-02-15T11:32:33;101006.60;;;4.71;100.00
24440;BME280;12618;54.386;18.394;2023-02-15T11:40:25;100995.05;;;4.80;100.00
24440;BME280;12618;54.386;18.394;2023-02-15T11:43:02;100995.23;;;4.82;100.00
24440;BME280;12618;54.386;18.394;2023-02-15T11:45:35;100984.90;;;4.87;100.00
24440;BME280;12618;54.386;18.394;2023-02-15T11:48:13;100980.87;;;4.94;100.00
24440;BME280;12618;54.386;18.394;2023-02-15T11:50:46;100983.45;;;4.98;100.00
24440;BME280;12618;54.386;18.394;2023-02-15T11:53:19;100981.17;;;5.01;100.00
24440;BME280;12618;54.386;18.394;2023-02-15T11:55:55;100979.95;;;5.03;100.00
24440;BME280;12618;54.386;18.394;2023-02-15T11:58:49;100977.13;;;5.08;100.00
24440;BME280;12618;54.386;18.394;2023-02-15T12:04:26;100972.05;;;5.13;100.00
